sensor_id;sensor_type;location;lat;lon;timestamp;P1;durP1;ratioP1;P2;durP2;ratioP2
21769;SDS011;11046;49.558;8.674;2024-03-25T00:00:57;6.33;;;3.60;;
21769;SDS011;11046;49.558;8.674;2024-03-25T00:03:58;8.00;;;3.97;;
21769;SDS011;11046;49.558;8.674;2024-03-25T00:06:58;9.50;;;3.90;;
21769;SDS011;11046;49.558;8.674;2024-03-25T00:09:59;8.90;;;4.20;;
21769;SDS011;11046;49.558;8.674;2024-03-25T00:13:00;8.37;;;4.37;;
21769;SDS011;11046;49.558;8.674;2024-03-25T00:16:00;7.80;;;4.17;;
21769;SDS011;11046;49.558;8.674;2024-03-25T00:19:01;9.00;;;4.43;;
21769;SDS011;11046;49.558;8.674;2024-03-25T00:22:01;6.77;;;4.00;;
21769;SDS011;11046;49.558;8.674;2024-03-25T00:25:02;9.50;;;4.37;;
21769;SDS011;11046;49.558;8.674;2024-03-25T00:28:03;10.37;;;3.83;;
21769;SDS011;11046;49.558;8.674;2024-03-25T00:31:04;7.67;;;3.30;;
21769;SDS011;11046;49.558;8.674;2024-03-25T00:34:05;7.83;;;4.10;;
21769;SDS011;11046;49.558;8.674;2024-03-25T00:37:05;7.63;;;3.60;;
21769;SDS011;11046;49.558;8.674;2024-03-25T00:40:06;6.10;;;3.60;;
21769;SDS011;11046;49.558;8.674;2024-03-25T00:43:07;7.90;;;3.67;;
21769;SDS011;11046;49.558;8.674;2024-03-25T00:46:08;9.37;;;3.90;;
21769;SDS011;11046;49.558;8.674;2024-03-25T00:49:08;9.73;;;3.73;;
21769;SDS011;11046;49.558;8.674;2024-03-25T00:52:09;7.77;;;4.00;;
21769;SDS011;11046;49.558;8.674;2024-03-25T00:55:10;9.07;;;3.77;;
21769;SDS011;11046;49.558;8.674;2024-03-25T00:58:11;9.97;;;4.00;;
21769;SDS011;11046;49.558;8.674;2024-03-25T01:01:11;8.83;;;4.10;;
21769;SDS011;11046;49.558;8.674;2024-03-25T01:04:12;9.77;;;3.80;;
21769;SDS011;11046;49.558;8.674;2024-03-25T01:07:13;10.27;;;4.47;;
21769;SDS011;11046;49.558;8.674;2024-03-25T01:10:13;7.47;;;4.03;;
21769;SDS011;11046;49.558;8.674;2024-03-25T01:13:14;9.50;;;3.90;;
21769;SDS011;11046;49.558;8.674;2024-03-25T01:16:15;6.27;;;3.37;;
21769;SDS011;11046;49.558;8.674;2024-03-25T01:19:15;8.77;;;3.97;;
21769;SDS011;11046;49.558;8.674;2024-03-25T01:22:16;9.10;;;3.40;;
21769;SDS011;11046;49.558;8.674;2024-03-25T01:25:17;12.00;;;3.73;;
21769;SDS011;11046;49.558;8.674;2024-03-25T01:28:17;7.77;;;3.80;;
21769;SDS011;11046;49.558;8.674;2024-03-25T01:31:18;10.83;;;4.60;;
21769;SDS011;11046;49.558;8.674;2024-03-25T01:34:19;9.33;;;3.80;;
21769;SDS011;11046;49.558;8.674;2024-03-25T01:37:20;6.10;;;3.67;;
21769;SDS011;11046;49.558;8.674;2024-03-25T01:40:20;7.03;;;3.40;;
21769;SDS011;11046;49.558;8.674;2024-03-25T01:43:21;5.77;;;3.30;;
21769;SDS011;11046;49.558;8.674;2024-03-25T01:46:21;11.23;;;3.60;;
21769;SDS011;11046;49.558;8.674;2024-03-25T01:49:22;11.43;;;4.30;;
21769;SDS011;11046;49.558;8.674;2024-03-25T01:52:23;5.73;;;3.43;;
21769;SDS011;11046;49.558;8.674;2024-03-25T01:55:26;13.83;;;5.03;;
21769;SDS011;11046;49.558;8.674;2024-03-25T01:58:29;8.83;;;4.00;;
21769;SDS011;11046;49.558;8.674;2024-03-25T02:01:31;7.50;;;4.00;;
21769;SDS011;11046;49.558;8.674;2024-03-25T02:04:32;7.20;;;3.73;;
21769;SDS011;11046;49.558;8.674;2024-03-25T02:07:35;6.40;;;3.47;;
21769;SDS011;11046;49.558;8.674;2024-03-25T02:10:41;7.07;;;3.67;;
21769;SDS011;11046;49.558;8.674;2024-03-25T02:13:41;14.50;;;4.20;;
21769;SDS011;11046;49.558;8.674;2024-03-25T02:16:42;7.87;;;3.87;;
21769;SDS011;11046;49.558;8.674;2024-03-25T02:19:42;7.40;;;3.87;;
21769;SDS011;11046;49.558;8.674;2024-03-25T02:22:43;12.17;;;4.47;;
21769;SDS011;11046;49.558;8.674;2024-03-25T02:25:49;14.53;;;4.13;;
21769;SDS011;11046;49.558;8.674;2024-03-25T02:28:50;12.50;;;4.47;;
21769;SDS011;11046;49.558;8.674;2024-03-25T02:31:51;7.97;;;3.90;;
21769;SDS011;11046;49.558;8.674;2024-03-25T02:34:53;11.90;;;4.43;;
21769;SDS011;11046;49.558;8.674;2024-03-25T02:37:54;10.53;;;4.80;;
21769;SDS011;11046;49.558;8.674;2024-03-25T02:40:55;9.27;;;3.83;;
21769;SDS011;11046;49.558;8.674;2024-03-25T02:43:55;9.47;;;4.17;;
21769;SDS011;11046;49.558;8.674;2024-03-25T02:46:57;10.73;;;4.33;;
21769;SDS011;11046;49.558;8.674;2024-03-25T02:49:58;9.37;;;4.00;;
21769;SDS011;11046;49.558;8.674;2024-03-25T02:52:59;11.77;;;4.20;;
21769;SDS011;11046;49.558;8.674;2024-03-25T02:55:59;9.83;;;4.07;;
21769;SDS011;11046;49.558;8.674;2024-03-25T02:59:00;10.00;;;4.23;;
21769;SDS011;11046;49.558;8.674;2024-03-25T03:02:00;9.57;;;4.33;;
21769;SDS011;11046;49.558;8.674;2024-03-25T03:05:01;10.67;;;4.27;;
21769;SDS011;11046;49.558;8.674;2024-03-25T03:08:04;7.80;;;4.20;;
21769;SDS011;11046;49.558;8.674;2024-03-25T03:11:04;11.23;;;4.57;;
21769;SDS011;11046;49.558;8.674;2024-03-25T03:14:05;9.47;;;4.93;;
21769;SDS011;11046;49.558;8.674;2024-03-25T03:17:06;16.70;;;7.60;;
21769;SDS011;11046;49.558;8.674;2024-03-25T03:20:06;15.10;;;5.63;;
21769;SDS011;11046;49.558;8.674;2024-03-25T03:23:07;14.63;;;6.40;;
21769;SDS011;11046;49.558;8.674;2024-03-25T03:26:08;15.70;;;5.90;;
21769;SDS011;11046;49.558;8.674;2024-03-25T03:29:08;15.20;;;6.97;;
21769;SDS011;11046;49.558;8.674;2024-03-25T03:32:09;19.60;;;8.10;;
21769;SDS011;11046;49.558;8.674;2024-03-25T03:35:10;18.80;;;7.30;;
21769;SDS011;11046;49.558;8.674;2024-03-25T03:38:10;20.47;;;8.37;;
21769;SDS011;11046;49.558;8.674;2024-03-25T03:41:11;18.90;;;7.30;;
21769;SDS011;11046;49.558;8.674;2024-03-25T03:44:11;12.57;;;5.73;;
21769;SDS011;11046;49.558;8.674;2024-03-25T03:47:14;19.13;;;7.03;;
21769;SDS011;11046;49.558;8.674;2024-03-25T03:50:15;15.20;;;6.80;;
21769;SDS011;11046;49.558;8.674;2024-03-25T03:53:16;18.07;;;6.63;;
21769;SDS011;11046;49.558;8.674;2024-03-25T03:56:16;16.77;;;6.87;;
21769;SDS011;11046;49.558;8.674;2024-03-25T03:59:17;17.07;;;6.87;;
21769;SDS011;11046;49.558;8.674;2024-03-25T04:02:17;13.03;;;5.77;;
21769;SDS011;11046;49.558;8.674;2024-03-25T04:05:18;18.33;;;7.70;;
21769;SDS011;11046;49.558;8.674;2024-03-25T04:08:19;22.47;;;7.60;;
21769;SDS011;11046;49.558;8.674;2024-03-25T04:11:19;22.07;;;8.67;;
21769;SDS011;11046;49.558;8.674;2024-03-25T04:14:20;22.07;;;8.97;;
21769;SDS011;11046;49.558;8.674;2024-03-25T04:17:21;19.30;;;7.43;;
21769;SDS011;11046;49.558;8.674;2024-03-25T04:20:22;16.80;;;6.50;;
21769;SDS011;11046;49.558;8.674;2024-03-25T04:23:22;15.43;;;5.80;;
21769;SDS011;11046;49.558;8.674;2024-03-25T04:26:23;15.47;;;6.13;;
21769;SDS011;11046;49.558;8.674;2024-03-25T04:29:23;16.20;;;6.63;;
21769;SDS011;11046;49.558;8.674;2024-03-25T04:32:24;17.10;;;5.93;;
21769;SDS011;11046;49.558;8.674;2024-03-25T04:35:24;14.17;;;5.77;;
21769;SDS011;11046;49.558;8.674;2024-03-25T04:38:25;13.07;;;5.27;;
21769;SDS011;11046;49.558;8.674;2024-03-25T04:41:26;11.10;;;5.27;;
21769;SDS011;11046;49.558;8.674;2024-03-25T04:44:27;12.17;;;5.90;;
21769;SDS011;11046;49.558;8.674;2024-03-25T04:47:27;14.23;;;5.77;;
21769;SDS011;11046;49.558;8.674;2024-03-25T04:50:30;13.40;;;5.90;;
21769;SDS011;11046;49.558;8.674;2024-03-25T04:53:30;15.83;;;5.70;;
21769;SDS011;11046;49.558;8.674;2024-03-25T04:56:31;19.27;;;6.97;;
21769;SDS011;11046;49.558;8.674;2024-03-25T04:59:32;13.57;;;5.90;;
21769;SDS011;11046;49.558;8.674;2024-03-25T05:02:33;18.03;;;7.80;;
21769;SDS011;11046;49.558;8.674;2024-03-25T05:05:36;17.47;;;7.23;;
21769;SDS011;11046;49.558;8.674;2024-03-25T05:08:37;18.03;;;6.93;;
21769;SDS011;11046;49.558;8.674;2024-03-25T05:11:37;16.00;;;6.57;;
21769;SDS011;11046;49.558;8.674;2024-03-25T05:14:38;17.90;;;7.43;;
21769;SDS011;11046;49.558;8.674;2024-03-25T05:17:39;13.97;;;6.20;;
21769;SDS011;11046;49.558;8.674;2024-03-25T05:20:40;16.77;;;6.87;;
21769;SDS011;11046;49.558;8.674;2024-03-25T05:23:40;12.20;;;6.07;;
21769;SDS011;11046;49.558;8.674;2024-03-25T05:26:41;12.93;;;6.00;;
21769;SDS011;11046;49.558;8.674;2024-03-25T05:29:42;14.90;;;5.87;;
21769;SDS011;11046;49.558;8.674;2024-03-25T05:32:42;16.47;;;6.47;;
21769;SDS011;11046;49.558;8.674;2024-03-25T05:35:43;16.17;;;6.30;;
21769;SDS011;11046;49.558;8.674;2024-03-25T05:38:43;14.33;;;6.10;;
21769;SDS011;11046;49.558;8.674;2024-03-25T05:41:44;13.87;;;6.00;;
21769;SDS011;11046;49.558;8.674;2024-03-25T05:44:45;14.03;;;6.37;;
21769;SDS011;11046;49.558;8.674;2024-03-25T05:47:46;12.40;;;5.63;;
21769;SDS011;11046;49.558;8.674;2024-03-25T05:50:56;15.17;;;6.17;;
21769;SDS011;11046;49.558;8.674;2024-03-25T05:54:07;13.83;;;6.30;;
21769;SDS011;11046;49.558;8.674;2024-03-25T05:57:08;12.93;;;5.73;;
21769;SDS011;11046;49.558;8.674;2024-03-25T06:03:25;15.17;;;5.87;;
21769;SDS011;11046;49.558;8.674;2024-03-25T06:06:25;16.47;;;6.47;;
21769;SDS011;11046;49.558;8.674;2024-03-25T06:09:26;12.30;;;5.53;;
21769;SDS011;11046;49.558;8.674;2024-03-25T06:12:26;15.27;;;6.33;;
21769;SDS011;11046;49.558;8.674;2024-03-25T06:15:27;15.53;;;6.00;;
21769;SDS011;11046;49.558;8.674;2024-03-25T06:18:27;14.07;;;6.20;;
21769;SDS011;11046;49.558;8.674;2024-03-25T06:21:28;15.30;;;6.47;;
21769;SDS011;11046;49.558;8.674;2024-03-25T06:24:29;18.30;;;6.33;;
21769;SDS011;11046;49.558;8.674;2024-03-25T06:27:29;15.47;;;6.33;;
21769;SDS011;11046;49.558;8.674;2024-03-25T06:30:31;14.70;;;5.87;;
21769;SDS011;11046;49.558;8.674;2024-03-25T06:33:50;14.33;;;6.17;;
21769;SDS011;11046;49.558;8.674;2024-03-25T06:37:10;18.93;;;6.20;;
21769;SDS011;11046;49.558;8.674;2024-03-25T06:40:10;20.20;;;6.60;;
21769;SDS011;11046;49.558;8.674;2024-03-25T06:43:11;14.83;;;6.27;;
21769;SDS011;11046;49.558;8.674;2024-03-25T06:50:34;19.10;;;6.47;;
21769;SDS011;11046;49.558;8.674;2024-03-25T06:53:36;15.17;;;6.73;;
21769;SDS011;11046;49.558;8.674;2024-03-25T06:56:37;14.73;;;6.40;;
21769;SDS011;11046;49.558;8.674;2024-03-25T06:59:37;13.37;;;6.93;;
21769;SDS011;11046;49.558;8.674;2024-03-25T07:02:38;13.00;;;6.50;;
21769;SDS011;11046;49.558;8.674;2024-03-25T07:05:39;15.93;;;6.27;;
21769;SDS011;11046;49.558;8.674;2024-03-25T07:08:40;12.40;;;6.60;;
21769;SDS011;11046;49.558;8.674;2024-03-25T07:11:41;13.57;;;6.60;;
21769;SDS011;11046;49.558;8.674;2024-03-25T07:14:46;12.50;;;6.27;;
21769;SDS011;11046;49.558;8.674;2024-03-25T07:17:47;15.33;;;6.40;;
21769;SDS011;11046;49.558;8.674;2024-03-25T07:20:49;14.90;;;6.10;;
21769;SDS011;11046;49.558;8.674;2024-03-25T07:23:49;15.33;;;5.57;;
21769;SDS011;11046;49.558;8.674;2024-03-25T07:26:50;14.47;;;7.30;;
21769;SDS011;11046;49.558;8.674;2024-03-25T07:29:51;19.67;;;6.93;;
21769;SDS011;11046;49.558;8.674;2024-03-25T07:32:51;12.20;;;6.40;;
21769;SDS011;11046;49.558;8.674;2024-03-25T07:35:52;15.77;;;5.50;;
21769;SDS011;11046;49.558;8.674;2024-03-25T07:38:52;11.10;;;5.63;;
21769;SDS011;11046;49.558;8.674;2024-03-25T07:41:53;12.73;;;5.60;;
21769;SDS011;11046;49.558;8.674;2024-03-25T07:44:53;16.43;;;6.90;;
21769;SDS011;11046;49.558;8.674;2024-03-25T07:47:55;12.10;;;5.37;;
21769;SDS011;11046;49.558;8.674;2024-03-25T07:50:57;10.87;;;5.83;;
21769;SDS011;11046;49.558;8.674;2024-03-25T07:53:58;13.40;;;6.00;;
21769;SDS011;11046;49.558;8.674;2024-03-25T07:56:58;10.57;;;5.73;;
21769;SDS011;11046;49.558;8.674;2024-03-25T07:59:59;12.83;;;6.20;;
21769;SDS011;11046;49.558;8.674;2024-03-25T08:02:59;10.10;;;5.43;;
21769;SDS011;11046;49.558;8.674;2024-03-25T08:10:23;11.40;;;5.47;;
21769;SDS011;11046;49.558;8.674;2024-03-25T08:13:23;11.27;;;5.37;;
21769;SDS011;11046;49.558;8.674;2024-03-25T08:16:27;15.43;;;5.70;;
21769;SDS011;11046;49.558;8.674;2024-03-25T08:19:27;16.53;;;5.60;;
21769;SDS011;11046;49.558;8.674;2024-03-25T08:22:28;10.60;;;5.30;;
21769;SDS011;11046;49.558;8.674;2024-03-25T08:25:28;11.20;;;5.37;;
21769;SDS011;11046;49.558;8.674;2024-03-25T08:28:29;11.97;;;5.87;;
21769;SDS011;11046;49.558;8.674;2024-03-25T08:31:30;11.00;;;4.57;;
21769;SDS011;11046;49.558;8.674;2024-03-25T08:34:30;11.40;;;5.32;;
21769;SDS011;11046;49.558;8.674;2024-03-25T08:37:31;10.85;;;4.90;;
21769;SDS011;11046;49.558;8.674;2024-03-25T08:40:32;13.73;;;4.97;;
21769;SDS011;11046;49.558;8.674;2024-03-25T08:43:32;8.93;;;4.43;;
21769;SDS011;11046;49.558;8.674;2024-03-25T08:46:33;7.50;;;3.93;;
21769;SDS011;11046;49.558;8.674;2024-03-25T08:49:35;12.90;;;4.00;;
21769;SDS011;11046;49.558;8.674;2024-03-25T08:52:36;12.13;;;4.20;;
21769;SDS011;11046;49.558;8.674;2024-03-25T08:55:36;10.45;;;4.68;;
21769;SDS011;11046;49.558;8.674;2024-03-25T08:58:37;8.20;;;3.97;;
21769;SDS011;11046;49.558;8.674;2024-03-25T09:01:37;9.32;;;4.00;;
21769;SDS011;11046;49.558;8.674;2024-03-25T09:04:38;8.05;;;3.90;;
21769;SDS011;11046;49.558;8.674;2024-03-25T09:07:39;10.70;;;4.00;;
21769;SDS011;11046;49.558;8.674;2024-03-25T09:10:42;9.65;;;4.78;;
21769;SDS011;11046;49.558;8.674;2024-03-25T09:14:02;10.43;;;4.05;;
21769;SDS011;11046;49.558;8.674;2024-03-25T09:17:04;9.77;;;4.47;;
21769;SDS011;11046;49.558;8.674;2024-03-25T09:20:05;7.85;;;4.70;;
21769;SDS011;11046;49.558;8.674;2024-03-25T09:23:16;8.25;;;4.35;;
21769;SDS011;11046;49.558;8.674;2024-03-25T09:26:17;10.65;;;4.53;;
21769;SDS011;11046;49.558;8.674;2024-03-25T09:29:17;8.43;;;5.00;;
21769;SDS011;11046;49.558;8.674;2024-03-25T09:32:18;11.25;;;4.90;;
21769;SDS011;11046;49.558;8.674;2024-03-25T09:35:20;8.07;;;4.85;;
21769;SDS011;11046;49.558;8.674;2024-03-25T09:38:21;10.02;;;4.40;;
21769;SDS011;11046;49.558;8.674;2024-03-25T09:41:22;10.00;;;4.80;;
21769;SDS011;11046;49.558;8.674;2024-03-25T09:44:24;9.38;;;4.53;;
21769;SDS011;11046;49.558;8.674;2024-03-25T09:47:25;8.98;;;4.65;;
21769;SDS011;11046;49.558;8.674;2024-03-25T09:50:26;6.55;;;3.85;;
21769;SDS011;11046;49.558;8.674;2024-03-25T09:53:27;11.20;;;4.43;;
21769;SDS011;11046;49.558;8.674;2024-03-25T09:56:27;14.43;;;4.70;;
21769;SDS011;11046;49.558;8.674;2024-03-25T09:59:30;10.68;;;5.03;;
21769;SDS011;11046;49.558;8.674;2024-03-25T10:02:33;10.55;;;4.47;;
21769;SDS011;11046;49.558;8.674;2024-03-25T10:05:36;11.38;;;4.90;;
21769;SDS011;11046;49.558;8.674;2024-03-25T10:08:38;9.43;;;4.60;;
21769;SDS011;11046;49.558;8.674;2024-03-25T10:11:38;8.32;;;4.35;;
21769;SDS011;11046;49.558;8.674;2024-03-25T10:14:39;8.70;;;3.92;;
21769;SDS011;11046;49.558;8.674;2024-03-25T10:17:40;8.23;;;3.97;;
21769;SDS011;11046;49.558;8.674;2024-03-25T10:20:48;7.28;;;4.07;;
21769;SDS011;11046;49.558;8.674;2024-03-25T10:23:52;7.13;;;4.00;;
21769;SDS011;11046;49.558;8.674;2024-03-25T10:26:54;10.18;;;4.85;;
21769;SDS011;11046;49.558;8.674;2024-03-25T10:29:57;9.88;;;4.25;;
21769;SDS011;11046;49.558;8.674;2024-03-25T10:33:01;7.78;;;4.40;;
21769;SDS011;11046;49.558;8.674;2024-03-25T10:36:06;7.05;;;3.10;;
21769;SDS011;11046;49.558;8.674;2024-03-25T10:39:09;8.70;;;3.65;;
21769;SDS011;11046;49.558;8.674;2024-03-25T10:42:11;9.63;;;3.45;;
21769;SDS011;11046;49.558;8.674;2024-03-25T10:45:14;8.77;;;3.63;;
21769;SDS011;11046;49.558;8.674;2024-03-25T10:51:26;8.23;;;3.72;;
21769;SDS011;11046;49.558;8.674;2024-03-25T10:54:28;8.73;;;4.00;;
21769;SDS011;11046;49.558;8.674;2024-03-25T10:57:30;8.95;;;5.00;;
21769;SDS011;11046;49.558;8.674;2024-03-25T11:00:31;8.80;;;3.63;;
21769;SDS011;11046;49.558;8.674;2024-03-25T11:03:33;8.65;;;3.83;;
21769;SDS011;11046;49.558;8.674;2024-03-25T11:06:35;6.00;;;3.40;;
21769;SDS011;11046;49.558;8.674;2024-03-25T11:09:36;8.18;;;4.13;;
21769;SDS011;11046;49.558;8.674;2024-03-25T11:12:37;8.20;;;3.78;;
21769;SDS011;11046;49.558;8.674;2024-03-25T11:15:40;10.32;;;3.75;;
21769;SDS011;11046;49.558;8.674;2024-03-25T11:18:50;9.48;;;3.88;;
21769;SDS011;11046;49.558;8.674;2024-03-25T11:21:51;9.05;;;3.90;;
21769;SDS011;11046;49.558;8.674;2024-03-25T11:24:52;7.75;;;4.00;;
21769;SDS011;11046;49.558;8.674;2024-03-25T11:27:55;6.13;;;3.42;;
21769;SDS011;11046;49.558;8.674;2024-03-25T11:30:55;7.93;;;4.32;;
21769;SDS011;11046;49.558;8.674;2024-03-25T11:33:56;8.75;;;3.78;;
21769;SDS011;11046;49.558;8.674;2024-03-25T11:36:57;8.18;;;3.33;;
21769;SDS011;11046;49.558;8.674;2024-03-25T11:40:02;6.03;;;3.58;;
21769;SDS011;11046;49.558;8.674;2024-03-25T11:43:04;11.60;;;4.13;;
21769;SDS011;11046;49.558;8.674;2024-03-25T11:46:05;9.95;;;3.58;;
21769;SDS011;11046;49.558;8.674;2024-03-25T11:49:06;7.70;;;3.75;;
21769;SDS011;11046;49.558;8.674;2024-03-25T11:52:08;7.60;;;3.58;;
21769;SDS011;11046;49.558;8.674;2024-03-25T11:55:09;9.38;;;4.10;;
21769;SDS011;11046;49.558;8.674;2024-03-25T11:58:11;6.75;;;3.55;;
21769;SDS011;11046;49.558;8.674;2024-03-25T12:01:12;6.68;;;3.80;;
21769;SDS011;11046;49.558;8.674;2024-03-25T12:04:17;6.18;;;3.50;;
21769;SDS011;11046;49.558;8.674;2024-03-25T12:07:19;10.45;;;3.22;;
21769;SDS011;11046;49.558;8.674;2024-03-25T12:10:19;6.05;;;3.53;;
21769;SDS011;11046;49.558;8.674;2024-03-25T12:13:39;6.25;;;2.92;;
21769;SDS011;11046;49.558;8.674;2024-03-25T12:16:41;5.72;;;2.80;;
21769;SDS011;11046;49.558;8.674;2024-03-25T12:19:41;5.55;;;2.92;;
21769;SDS011;11046;49.558;8.674;2024-03-25T12:22:42;7.22;;;3.15;;
21769;SDS011;11046;49.558;8.674;2024-03-25T12:25:49;6.40;;;3.08;;
21769;SDS011;11046;49.558;8.674;2024-03-25T12:28:50;4.22;;;2.60;;
21769;SDS011;11046;49.558;8.674;2024-03-25T12:31:55;8.20;;;2.78;;
21769;SDS011;11046;49.558;8.674;2024-03-25T12:34:57;4.32;;;2.40;;
21769;SDS011;11046;49.558;8.674;2024-03-25T12:37:58;8.52;;;3.00;;
21769;SDS011;11046;49.558;8.674;2024-03-25T12:44:05;6.38;;;3.33;;
21769;SDS011;11046;49.558;8.674;2024-03-25T12:47:06;4.53;;;2.63;;
21769;SDS011;11046;49.558;8.674;2024-03-25T12:50:07;8.90;;;2.80;;
21769;SDS011;11046;49.558;8.674;2024-03-25T12:53:09;7.47;;;2.80;;
21769;SDS011;11046;49.558;8.674;2024-03-25T12:56:18;5.78;;;2.88;;
21769;SDS011;11046;49.558;8.674;2024-03-25T12:59:18;4.63;;;2.63;;
21769;SDS011;11046;49.558;8.674;2024-03-25T13:02:19;5.05;;;2.70;;
21769;SDS011;11046;49.558;8.674;2024-03-25T13:05:20;8.48;;;3.03;;
21769;SDS011;11046;49.558;8.674;2024-03-25T13:08:20;5.03;;;2.35;;
21769;SDS011;11046;49.558;8.674;2024-03-25T13:11:22;6.00;;;2.53;;
21769;SDS011;11046;49.558;8.674;2024-03-25T13:14:23;5.70;;;2.83;;
21769;SDS011;11046;49.558;8.674;2024-03-25T13:17:24;6.68;;;2.72;;
21769;SDS011;11046;49.558;8.674;2024-03-25T13:20:25;4.82;;;2.53;;
21769;SDS011;11046;49.558;8.674;2024-03-25T13:23:25;5.13;;;2.45;;
21769;SDS011;11046;49.558;8.674;2024-03-25T13:26:26;6.13;;;2.60;;
21769;SDS011;11046;49.558;8.674;2024-03-25T13:29:27;7.78;;;2.70;;
21769;SDS011;11046;49.558;8.674;2024-03-25T13:32:27;7.05;;;2.75;;
21769;SDS011;11046;49.558;8.674;2024-03-25T13:35:28;6.72;;;2.50;;
21769;SDS011;11046;49.558;8.674;2024-03-25T13:38:28;6.07;;;2.30;;
21769;SDS011;11046;49.558;8.674;2024-03-25T13:41:29;7.10;;;2.30;;
21769;SDS011;11046;49.558;8.674;2024-03-25T13:44:29;4.53;;;2.10;;
21769;SDS011;11046;49.558;8.674;2024-03-25T13:47:30;3.35;;;2.05;;
21769;SDS011;11046;49.558;8.674;2024-03-25T13:50:31;4.45;;;2.28;;
21769;SDS011;11046;49.558;8.674;2024-03-25T13:53:31;3.47;;;2.00;;
21769;SDS011;11046;49.558;8.674;2024-03-25T13:56:32;5.45;;;2.10;;
21769;SDS011;11046;49.558;8.674;2024-03-25T13:59:33;4.10;;;1.80;;
21769;SDS011;11046;49.558;8.674;2024-03-25T14:02:34;3.08;;;1.67;;
21769;SDS011;11046;49.558;8.674;2024-03-25T14:05:36;6.90;;;2.15;;
21769;SDS011;11046;49.558;8.674;2024-03-25T14:08:36;4.22;;;1.80;;
21769;SDS011;11046;49.558;8.674;2024-03-25T14:11:37;4.22;;;1.65;;
21769;SDS011;11046;49.558;8.674;2024-03-25T14:14:37;1.88;;;1.30;;
21769;SDS011;11046;49.558;8.674;2024-03-25T14:17:38;1.77;;;1.33;;
21769;SDS011;11046;49.558;8.674;2024-03-25T14:20:39;5.22;;;2.30;;
21769;SDS011;11046;49.558;8.674;2024-03-25T14:23:39;6.32;;;2.58;;
21769;SDS011;11046;49.558;8.674;2024-03-25T14:26:43;4.15;;;2.28;;
21769;SDS011;11046;49.558;8.674;2024-03-25T14:29:44;7.47;;;3.20;;
21769;SDS011;11046;49.558;8.674;2024-03-25T14:32:44;5.35;;;2.83;;
21769;SDS011;11046;49.558;8.674;2024-03-25T14:35:45;7.65;;;3.17;;
21769;SDS011;11046;49.558;8.674;2024-03-25T14:38:46;5.88;;;2.97;;
21769;SDS011;11046;49.558;8.674;2024-03-25T14:41:46;7.47;;;3.08;;
21769;SDS011;11046;49.558;8.674;2024-03-25T14:44:47;8.38;;;3.60;;
21769;SDS011;11046;49.558;8.674;2024-03-25T14:47:48;6.43;;;3.25;;
21769;SDS011;11046;49.558;8.674;2024-03-25T14:50:49;9.48;;;3.03;;
21769;SDS011;11046;49.558;8.674;2024-03-25T14:53:50;8.75;;;3.33;;
21769;SDS011;11046;49.558;8.674;2024-03-25T14:56:51;6.53;;;3.40;;
21769;SDS011;11046;49.558;8.674;2024-03-25T14:59:51;4.18;;;2.15;;
21769;SDS011;11046;49.558;8.674;2024-03-25T15:02:52;4.00;;;1.90;;
21769;SDS011;11046;49.558;8.674;2024-03-25T15:05:52;5.18;;;1.60;;
21769;SDS011;11046;49.558;8.674;2024-03-25T15:08:53;4.90;;;1.58;;
21769;SDS011;11046;49.558;8.674;2024-03-25T15:11:54;3.70;;;1.23;;
21769;SDS011;11046;49.558;8.674;2024-03-25T15:14:55;4.45;;;1.33;;
21769;SDS011;11046;49.558;8.674;2024-03-25T15:17:56;4.30;;;1.38;;
21769;SDS011;11046;49.558;8.674;2024-03-25T15:21:03;5.30;;;1.38;;
21769;SDS011;11046;49.558;8.674;2024-03-25T15:24:04;4.13;;;1.50;;
21769;SDS011;11046;49.558;8.674;2024-03-25T15:27:04;4.20;;;1.10;;
21769;SDS011;11046;49.558;8.674;2024-03-25T15:30:05;2.40;;;1.48;;
21769;SDS011;11046;49.558;8.674;2024-03-25T15:33:06;3.05;;;1.20;;
21769;SDS011;11046;49.558;8.674;2024-03-25T15:36:07;4.45;;;1.38;;
21769;SDS011;11046;49.558;8.674;2024-03-25T15:39:07;3.20;;;1.40;;
21769;SDS011;11046;49.558;8.674;2024-03-25T15:42:08;3.38;;;1.70;;
21769;SDS011;11046;49.558;8.674;2024-03-25T15:45:09;4.80;;;1.80;;
21769;SDS011;11046;49.558;8.674;2024-03-25T15:48:09;1.95;;;1.23;;
21769;SDS011;11046;49.558;8.674;2024-03-25T15:51:10;3.50;;;1.60;;
21769;SDS011;11046;49.558;8.674;2024-03-25T15:54:11;2.33;;;1.40;;
21769;SDS011;11046;49.558;8.674;2024-03-25T15:57:11;4.28;;;1.33;;
21769;SDS011;11046;49.558;8.674;2024-03-25T16:00:12;3.75;;;1.70;;
21769;SDS011;11046;49.558;8.674;2024-03-25T16:03:13;1.92;;;1.27;;
21769;SDS011;11046;49.558;8.674;2024-03-25T16:06:13;2.08;;;1.30;;
21769;SDS011;11046;49.558;8.674;2024-03-25T16:09:14;3.85;;;1.60;;
21769;SDS011;11046;49.558;8.674;2024-03-25T16:12:19;3.33;;;1.70;;
21769;SDS011;11046;49.558;8.674;2024-03-25T16:15:19;2.45;;;1.30;;
21769;SDS011;11046;49.558;8.674;2024-03-25T16:18:20;3.10;;;1.42;;
21769;SDS011;11046;49.558;8.674;2024-03-25T16:21:20;4.60;;;1.40;;
21769;SDS011;11046;49.558;8.674;2024-03-25T16:24:23;10.52;;;1.75;;
21769;SDS011;11046;49.558;8.674;2024-03-25T16:27:23;4.43;;;1.30;;
21769;SDS011;11046;49.558;8.674;2024-03-25T16:30:24;3.42;;;1.50;;
21769;SDS011;11046;49.558;8.674;2024-03-25T16:33:24;1.92;;;1.20;;
21769;SDS011;11046;49.558;8.674;2024-03-25T16:36:26;2.05;;;1.20;;
21769;SDS011;11046;49.558;8.674;2024-03-25T16:39:26;3.85;;;1.38;;
21769;SDS011;11046;49.558;8.674;2024-03-25T16:42:27;2.40;;;1.33;;
21769;SDS011;11046;49.558;8.674;2024-03-25T16:45:27;3.67;;;1.20;;
21769;SDS011;11046;49.558;8.674;2024-03-25T16:48:28;1.95;;;1.10;;
21769;SDS011;11046;49.558;8.674;2024-03-25T16:51:29;2.60;;;1.70;;
21769;SDS011;11046;49.558;8.674;2024-03-25T16:54:31;2.47;;;1.50;;
21769;SDS011;11046;49.558;8.674;2024-03-25T16:57:32;3.70;;;1.65;;
21769;SDS011;11046;49.558;8.674;2024-03-25T17:00:33;5.40;;;1.40;;
21769;SDS011;11046;49.558;8.674;2024-03-25T17:03:34;2.55;;;1.33;;
21769;SDS011;11046;49.558;8.674;2024-03-25T17:06:35;2.03;;;1.15;;
21769;SDS011;11046;49.558;8.674;2024-03-25T17:09:35;4.00;;;1.30;;
21769;SDS011;11046;49.558;8.674;2024-03-25T17:12:36;3.03;;;1.30;;
21769;SDS011;11046;49.558;8.674;2024-03-25T17:15:38;3.15;;;1.23;;
21769;SDS011;11046;49.558;8.674;2024-03-25T17:18:39;3.28;;;1.30;;
21769;SDS011;11046;49.558;8.674;2024-03-25T17:21:39;4.10;;;1.60;;
21769;SDS011;11046;49.558;8.674;2024-03-25T17:24:40;2.17;;;1.30;;
21769;SDS011;11046;49.558;8.674;2024-03-25T17:27:41;2.22;;;1.63;;
21769;SDS011;11046;49.558;8.674;2024-03-25T17:30:42;3.85;;;1.98;;
21769;SDS011;11046;49.558;8.674;2024-03-25T17:33:44;3.28;;;1.90;;
21769;SDS011;11046;49.558;8.674;2024-03-25T17:36:48;5.70;;;1.60;;
21769;SDS011;11046;49.558;8.674;2024-03-25T17:39:50;3.08;;;1.60;;
21769;SDS011;11046;49.558;8.674;2024-03-25T17:42:51;2.83;;;1.83;;
21769;SDS011;11046;49.558;8.674;2024-03-25T17:45:52;3.28;;;1.80;;
21769;SDS011;11046;49.558;8.674;2024-03-25T17:48:53;1.98;;;1.50;;
21769;SDS011;11046;49.558;8.674;2024-03-25T17:51:56;5.40;;;1.80;;
21769;SDS011;11046;49.558;8.674;2024-03-25T17:54:57;5.13;;;1.77;;
21769;SDS011;11046;49.558;8.674;2024-03-25T17:57:58;4.18;;;1.65;;
21769;SDS011;11046;49.558;8.674;2024-03-25T18:00:59;4.83;;;2.70;;
21769;SDS011;11046;49.558;8.674;2024-03-25T18:03:59;5.32;;;1.80;;
21769;SDS011;11046;49.558;8.674;2024-03-25T18:07:00;4.70;;;1.80;;
21769;SDS011;11046;49.558;8.674;2024-03-25T18:10:01;5.77;;;2.47;;
21769;SDS011;11046;49.558;8.674;2024-03-25T18:13:02;5.80;;;2.57;;
21769;SDS011;11046;49.558;8.674;2024-03-25T18:16:05;4.60;;;3.00;;
21769;SDS011;11046;49.558;8.674;2024-03-25T18:19:06;3.13;;;2.00;;
21769;SDS011;11046;49.558;8.674;2024-03-25T18:22:06;5.53;;;2.63;;
21769;SDS011;11046;49.558;8.674;2024-03-25T18:25:08;8.70;;;2.27;;